createdAt,value
2023-03-17T00:00:46.318Z,49.63
2023-03-17T00:03:21.403Z,48.13
2023-03-17T00:05:49.284Z,46.37
2023-03-17T00:08:22.504Z,49.27
2023-03-17T00:10:50.382Z,47.92
2023-03-17T00:13:18.426Z,36.43
2023-03-17T00:15:48.312Z,37.10
2023-03-17T00:18:18.172Z,37.27
2023-03-17T00:20:47.332Z,30.53
2023-03-17T00:23:16.870Z,28.43
2023-03-17T00:25:46.016Z,34.57
2023-03-17T00:28:20.058Z,30.83
2023-03-17T00:30:48.513Z,33.70
2023-03-17T00:33:17.074Z,36.50
2023-03-17T00:35:47.350Z,30.13
2023-03-17T00:38:18.961Z,29.07
2023-03-17T00:40:49.755Z,21.30
2023-03-17T00:43:17.993Z,21.57
2023-03-17T00:45:45.528Z,31.07
2023-03-17T00:48:20.564Z,20.60
2023-03-17T00:50:48.224Z,23.20
2023-03-17T00:53:17.464Z,25.73
2023-03-17T00:55:46.069Z,18.77
2023-03-17T00:58:25.849Z,18.40
2023-03-17T01:00:54.180Z,14.27
2023-03-17T01:03:21.900Z,17.50
2023-03-17T01:05:50.342Z,16.93
2023-03-17T01:08:18.691Z,16.50
2023-03-17T01:10:46.416Z,12.70
2023-03-17T01:13:14.464Z,15.37
2023-03-17T01:15:47.033Z,17.53
2023-03-17T01:18:16.766Z,18.90
2023-03-17T01:20:44.843Z,24.67
2023-03-17T01:23:13.002Z,29.43
2023-03-17T01:25:43.458Z,32.93
2023-03-17T01:28:14.360Z,27.10
2023-03-17T01:30:43.021Z,25.60
2023-03-17T01:33:11.877Z,23.57
2023-03-17T01:35:39.985Z,15.27
2023-03-17T01:38:07.637Z,9.30
2023-03-17T01:40:37.923Z,8.53
2023-03-17T01:43:09.063Z,5.93
2023-03-17T01:45:55.338Z,11.33
2023-03-17T01:48:23.676Z,8.03
2023-03-17T01:50:51.349Z,7.63
2023-03-17T01:53:19.970Z,7.63
2023-03-17T01:55:48.016Z,9.77
2023-03-17T01:58:16.633Z,10.57
2023-03-17T02:00:44.956Z,14.70
2023-03-17T02:03:11.728Z,14.63
2023-03-17T02:05:39.465Z,11.40
2023-03-17T02:08:14.245Z,13.43
2023-03-17T02:10:42.955Z,13.20
2023-03-17T02:13:12.132Z,15.63
2023-03-17T02:15:43.802Z,14.63
2023-03-17T02:18:13.237Z,16.80
2023-03-17T02:20:40.796Z,13.03
2023-03-17T02:23:08.686Z,13.47
2023-03-17T02:25:37.178Z,18.30
2023-03-17T02:28:14.952Z,12.47
2023-03-17T02:30:42.945Z,11.77
2023-03-17T02:33:11.005Z,12.00
2023-03-17T02:35:39.165Z,14.07
2023-03-17T02:38:06.870Z,11.30
2023-03-17T02:40:35.501Z,10.03
2023-03-17T02:43:03.316Z,9.00
2023-03-17T02:45:30.964Z,10.23
2023-03-17T02:47:58.889Z,13.57
2023-03-17T02:50:28.488Z,11.47
2023-03-17T02:52:57.584Z,16.10
2023-03-17T02:55:25.140Z,12.40
2023-03-17T02:57:53.012Z,14.80
2023-03-17T03:00:20.764Z,9.87
2023-03-17T03:02:48.433Z,9.73
2023-03-17T03:05:16.160Z,8.10
2023-03-17T03:07:44.341Z,8.87
2023-03-17T03:10:12.342Z,12.43
2023-03-17T03:12:41.050Z,8.77
2023-03-17T03:15:10.353Z,9.43
2023-03-17T03:17:38.020Z,11.03
2023-03-17T03:20:05.437Z,9.40
2023-03-17T03:22:32.871Z,13.00
2023-03-17T03:25:00.490Z,11.20
2023-03-17T03:27:28.094Z,8.03
2023-03-17T03:29:54.616Z,14.37
2023-03-17T03:32:22.043Z,12.87
2023-03-17T03:34:49.860Z,15.77
2023-03-17T03:37:17.310Z,12.47
2023-03-17T03:39:45.473Z,10.53
2023-03-17T03:42:13.014Z,12.00
2023-03-17T03:44:40.737Z,16.27
2023-03-17T03:47:08.070Z,11.10
2023-03-17T03:49:35.677Z,18.03
2023-03-17T03:52:03.188Z,10.70
2023-03-17T03:54:30.860Z,14.67
2023-03-17T03:56:58.339Z,13.47
2023-03-17T03:59:25.879Z,12.10
2023-03-17T04:01:53.380Z,13.00
2023-03-17T04:04:21.437Z,11.87
2023-03-17T04:06:49.077Z,9.13
2023-03-17T04:09:16.997Z,9.40
2023-03-17T04:11:44.696Z,9.33
2023-03-17T04:14:12.278Z,9.53
2023-03-17T04:16:43.189Z,10.53
2023-03-17T04:19:11.937Z,10.50
2023-03-17T04:21:39.630Z,11.10
2023-03-17T04:24:07.535Z,11.37
2023-03-17T04:26:35.122Z,10.40
2023-03-17T04:29:02.857Z,9.40
2023-03-17T04:31:30.501Z,8.30
2023-03-17T04:33:58.071Z,9.77
2023-03-17T04:36:25.875Z,9.80
2023-03-17T04:38:53.470Z,7.93
2023-03-17T04:41:21.291Z,7.17
2023-03-17T04:43:48.839Z,8.87
2023-03-17T04:46:16.969Z,10.70
2023-03-17T04:48:43.557Z,8.70
2023-03-17T04:51:11.933Z,7.17
2023-03-17T04:53:39.678Z,7.77
2023-03-17T04:56:06.413Z,5.60
2023-03-17T04:58:33.860Z,8.77
2023-03-17T05:01:03.221Z,9.27
2023-03-17T05:03:30.418Z,9.00
2023-03-17T05:06:01.740Z,8.20
2023-03-17T05:08:29.159Z,9.77
2023-03-17T05:10:56.166Z,10.77
2023-03-17T05:13:24.290Z,9.83
2023-03-17T05:15:52.665Z,11.47
2023-03-17T05:18:19.674Z,10.77
2023-03-17T05:20:47.185Z,9.70
2023-03-17T05:23:14.943Z,8.90
2023-03-17T05:25:41.782Z,7.90
2023-03-17T05:28:09.429Z,9.57
2023-03-17T05:30:39.708Z,9.63
2023-03-17T05:33:06.445Z,7.20
2023-03-17T05:35:34.002Z,8.07
2023-03-17T05:38:01.830Z,9.60
2023-03-17T05:40:28.913Z,7.67
2023-03-17T05:42:56.733Z,10.57
2023-03-17T05:45:24.352Z,9.97
2023-03-17T05:47:50.987Z,11.53
2023-03-17T05:50:20.419Z,10.20
2023-03-17T05:52:48.610Z,10.83
2023-03-17T05:55:16.003Z,7.67
2023-03-17T05:57:43.713Z,8.53
2023-03-17T06:00:12.791Z,11.00
2023-03-17T06:02:39.551Z,7.77
2023-03-17T06:05:08.955Z,11.13
2023-03-17T06:07:50.761Z,13.60
2023-03-17T06:10:21.480Z,10.93
2023-03-17T06:12:49.171Z,8.27
2023-03-17T06:15:17.165Z,8.80
2023-03-17T06:17:45.248Z,9.53
2023-03-17T06:20:14.130Z,10.20
2023-03-17T06:22:51.680Z,12.63
2023-03-17T06:25:28.468Z,10.18
2023-03-17T06:27:56.266Z,7.28
2023-03-17T06:30:23.966Z,9.30
2023-03-17T06:32:51.611Z,9.13
2023-03-17T06:35:18.374Z,10.65
2023-03-17T06:37:46.050Z,9.32
2023-03-17T06:40:14.181Z,11.68
2023-03-17T06:42:40.727Z,11.43
2023-03-17T06:45:10.094Z,9.30
2023-03-17T06:47:40.616Z,10.00
2023-03-17T06:50:10.404Z,12.90
2023-03-17T06:52:37.763Z,15.60
2023-03-17T06:55:05.707Z,14.27
2023-03-17T06:57:32.400Z,13.80
2023-03-17T06:59:59.205Z,13.45
2023-03-17T07:02:27.693Z,12.35
2023-03-17T07:04:54.650Z,16.08
2023-03-17T07:07:21.289Z,13.00
2023-03-17T07:09:48.869Z,12.63
2023-03-17T07:12:16.274Z,15.13
2023-03-17T07:14:43.667Z,17.02
2023-03-17T07:17:12.745Z,17.05
2023-03-17T07:19:40.769Z,12.15
2023-03-17T07:22:08.209Z,13.65
2023-03-17T07:24:35.976Z,15.88
2023-03-17T07:27:02.498Z,15.85
2023-03-17T07:29:29.885Z,13.32
2023-03-17T07:31:57.886Z,8.80
2023-03-17T07:34:24.518Z,20.83
2023-03-17T07:36:52.238Z,12.77
2023-03-17T07:39:20.765Z,11.20
2023-03-17T07:41:53.056Z,7.78
2023-03-17T07:44:19.875Z,29.52
2023-03-17T07:46:47.617Z,30.20
2023-03-17T07:49:15.225Z,28.52
2023-03-17T07:51:43.404Z,38.53
2023-03-17T07:54:13.766Z,12.95
2023-03-17T07:56:41.901Z,25.33
2023-03-17T07:59:08.883Z,18.45
2023-03-17T08:01:36.863Z,11.73
2023-03-17T08:04:05.517Z,6.40
2023-03-17T08:06:32.578Z,7.85
2023-03-17T08:09:00.205Z,29.13
2023-03-17T08:11:29.354Z,10.68
2023-03-17T08:13:56.487Z,111.35
2023-03-17T08:16:23.955Z,25.27
2023-03-17T08:18:51.658Z,95.25
2023-03-17T08:21:18.215Z,119.53
2023-03-17T08:23:45.529Z,88.22
2023-03-17T08:26:15.660Z,16.30
2023-03-17T08:28:43.943Z,11.98
2023-03-17T08:31:14.718Z,8.98
2023-03-17T08:33:42.679Z,13.27
2023-03-17T08:36:11.605Z,27.52
2023-03-17T08:38:39.413Z,29.92
2023-03-17T08:41:09.125Z,29.50
2023-03-17T08:43:37.448Z,34.65
2023-03-17T08:46:07.878Z,10.98
2023-03-17T08:48:35.543Z,18.02
2023-03-17T08:51:03.204Z,21.45
2023-03-17T08:53:30.107Z,9.77
2023-03-17T08:55:57.312Z,9.93
2023-03-17T08:58:25.687Z,8.63
2023-03-17T09:00:53.230Z,10.27
2023-03-17T09:03:22.227Z,8.63
2023-03-17T09:05:50.631Z,9.60
2023-03-17T09:08:18.687Z,7.55
2023-03-17T09:10:46.368Z,7.72
2023-03-17T09:13:14.211Z,7.70
2023-03-17T09:15:41.375Z,57.67
2023-03-17T09:18:10.162Z,50.05
2023-03-17T09:20:37.777Z,27.42
2023-03-17T09:23:09.567Z,19.10
2023-03-17T09:25:38.165Z,20.75
2023-03-17T09:28:04.783Z,12.32
2023-03-17T09:30:33.509Z,14.63
2023-03-17T09:33:01.411Z,13.50
2023-03-17T09:35:29.159Z,12.32
2023-03-17T09:37:56.619Z,11.23
2023-03-17T09:40:33.412Z,8.07
2023-03-17T09:43:06.955Z,10.07
2023-03-17T09:45:36.587Z,8.27
2023-03-17T09:48:05.706Z,8.63
2023-03-17T09:50:46.291Z,18.63
2023-03-17T09:53:17.142Z,15.10
2023-03-17T09:55:45.198Z,15.90
2023-03-17T09:58:13.167Z,9.93
2023-03-17T10:00:41.132Z,7.55
2023-03-17T10:03:10.412Z,9.25
2023-03-17T10:05:38.573Z,8.98
2023-03-17T10:08:15.609Z,46.92
2023-03-17T10:10:55.759Z,7.38
2023-03-17T10:13:42.564Z,12.43
2023-03-17T10:16:13.092Z,7.55
2023-03-17T10:18:56.004Z,10.68
2023-03-17T10:21:25.585Z,11.82
2023-03-17T10:23:54.845Z,15.90
2023-03-17T10:26:25.730Z,17.65
2023-03-17T10:28:54.025Z,8.18
2023-03-17T10:31:27.986Z,7.53
2023-03-17T10:33:55.699Z,7.28
2023-03-17T10:36:38.754Z,10.25
2023-03-17T10:39:08.161Z,6.77
2023-03-17T10:41:39.807Z,63.95
2023-03-17T10:44:12.349Z,23.20
2023-03-17T10:46:41.304Z,7.93
2023-03-17T10:49:18.236Z,7.15
2023-03-17T10:51:47.964Z,10.13
2023-03-17T10:54:19.912Z,7.70
2023-03-17T10:56:48.215Z,8.65
2023-03-17T10:59:19.576Z,4.78
2023-03-17T11:02:13.721Z,10.82
2023-03-17T11:04:42.634Z,9.20
2023-03-17T11:07:18.357Z,8.43
2023-03-17T11:09:49.528Z,12.23
2023-03-17T11:12:23.026Z,12.35
2023-03-17T11:14:49.960Z,5.55
2023-03-17T11:17:25.976Z,6.38
2023-03-17T11:19:53.735Z,6.28
2023-03-17T11:22:30.869Z,10.52
2023-03-17T11:25:10.251Z,8.77
2023-03-17T11:27:56.822Z,11.23
2023-03-17T11:30:23.688Z,8.00
2023-03-17T11:33:01.149Z,10.27
2023-03-17T11:35:35.341Z,8.35
2023-03-17T11:38:08.404Z,8.32
2023-03-17T11:40:36.060Z,9.02
2023-03-17T11:43:05.126Z,9.43
2023-03-17T11:45:35.917Z,9.38
2023-03-17T11:48:07.116Z,9.15
2023-03-17T11:50:51.401Z,4.50
2023-03-17T11:53:22.109Z,7.07
2023-03-17T11:55:56.582Z,10.27
2023-03-17T11:58:34.523Z,6.38
2023-03-17T12:01:03.205Z,10.00
2023-03-17T12:03:48.753Z,6.90
2023-03-17T12:06:18.060Z,4.85
2023-03-17T12:08:48.410Z,7.05
2023-03-17T12:11:19.879Z,6.80
2023-03-17T12:13:53.219Z,8.80
2023-03-17T12:16:35.490Z,8.32
2023-03-17T12:19:28.136Z,12.07
2023-03-17T12:22:01.761Z,9.57
2023-03-17T12:24:37.394Z,11.98
2023-03-17T12:27:06.252Z,7.15
2023-03-17T12:29:37.335Z,8.07
2023-03-17T12:32:20.480Z,17.80
2023-03-17T12:34:48.324Z,15.67
2023-03-17T12:37:16.833Z,10.68
2023-03-17T12:39:51.140Z,8.77
2023-03-17T12:42:31.915Z,7.90
2023-03-17T12:45:02.514Z,10.48
2023-03-17T12:47:30.180Z,10.15
2023-03-17T12:50:16.971Z,9.00
2023-03-17T12:52:46.491Z,26.52
2023-03-17T12:55:16.497Z,21.42
2023-03-17T12:57:44.806Z,13.07
2023-03-17T13:00:26.240Z,39.55
2023-03-17T13:03:09.147Z,42.03
2023-03-17T13:05:37.527Z,7.88
2023-03-17T13:08:06.484Z,6.13
2023-03-17T13:10:43.513Z,9.15
2023-03-17T13:13:20.581Z,8.90
2023-03-17T13:15:47.088Z,24.35
2023-03-17T13:18:16.876Z,9.13
2023-03-17T13:20:46.391Z,8.35
2023-03-17T13:23:15.678Z,8.77
2023-03-17T13:25:43.089Z,9.48
2023-03-17T13:28:12.425Z,10.40
2023-03-17T13:30:39.014Z,16.77
2023-03-17T13:33:13.856Z,14.05
2023-03-17T13:35:48.662Z,8.55
2023-03-17T13:38:19.293Z,7.45
2023-03-17T13:41:00.421Z,8.70
2023-03-17T13:43:43.355Z,9.52
2023-03-17T13:46:29.850Z,12.83
2023-03-17T13:48:57.809Z,12.70
2023-03-17T13:51:28.100Z,8.52
2023-03-17T13:54:08.482Z,9.43
2023-03-17T13:56:37.483Z,10.45
2023-03-17T13:59:05.810Z,12.15
2023-03-17T14:01:36.915Z,19.40
2023-03-17T14:04:06.278Z,8.27
2023-03-17T14:06:37.991Z,11.05
2023-03-17T14:09:17.924Z,9.30
2023-03-17T14:11:46.343Z,6.05
2023-03-17T14:14:26.075Z,7.43
2023-03-17T14:17:07.855Z,6.82
2023-03-17T14:19:35.709Z,7.95
2023-03-17T14:22:05.177Z,5.30
2023-03-17T14:24:33.797Z,7.05
2023-03-17T14:27:10.133Z,14.00
2023-03-17T14:29:38.328Z,13.73
2023-03-17T14:32:07.711Z,9.70
2023-03-17T14:34:35.698Z,5.82
2023-03-17T14:37:04.022Z,12.90
2023-03-17T14:39:31.823Z,8.07
2023-03-17T14:42:03.762Z,10.20
2023-03-17T14:44:41.227Z,9.43
2023-03-17T14:47:14.616Z,7.07
2023-03-17T14:49:42.254Z,23.67
2023-03-17T14:52:17.626Z,10.32
2023-03-17T14:54:45.498Z,25.65
2023-03-17T14:57:16.898Z,10.98
2023-03-17T14:59:56.168Z,10.90
2023-03-17T15:02:26.468Z,25.17
2023-03-17T15:04:55.866Z,9.82
2023-03-17T15:07:43.212Z,6.65
2023-03-17T15:10:17.130Z,11.93
2023-03-17T15:12:47.667Z,5.10
2023-03-17T15:15:22.158Z,5.03
2023-03-17T15:17:52.195Z,5.63
2023-03-17T15:20:19.953Z,6.53
2023-03-17T15:22:57.319Z,6.90
2023-03-17T15:25:44.213Z,32.35
2023-03-17T15:28:16.389Z,7.75
2023-03-17T15:30:47.934Z,11.07
2023-03-17T15:33:24.952Z,12.88
2023-03-17T15:35:53.073Z,14.63
2023-03-17T15:38:22.348Z,16.92
2023-03-17T15:40:49.679Z,13.20
2023-03-17T15:43:18.391Z,10.75
2023-03-17T15:45:47.736Z,6.63
2023-03-17T15:48:22.718Z,10.80
2023-03-17T15:50:52.189Z,12.05
2023-03-17T15:53:20.475Z,8.40
2023-03-17T15:55:47.417Z,14.07
2023-03-17T15:58:14.412Z,13.20
2023-03-17T16:00:41.908Z,10.48
2023-03-17T16:03:21.906Z,16.02
2023-03-17T16:05:48.502Z,8.23
2023-03-17T16:08:15.767Z,19.30
2023-03-17T16:10:43.388Z,16.52
2023-03-17T16:13:10.535Z,13.13
2023-03-17T16:15:39.975Z,15.45
2023-03-17T16:18:09.731Z,15.88
2023-03-17T16:20:39.338Z,11.25
2023-03-17T16:23:12.574Z,8.75
2023-03-17T16:25:39.051Z,15.10
2023-03-17T16:28:16.109Z,16.33
2023-03-17T16:30:43.924Z,14.18
2023-03-17T16:33:20.231Z,15.13
2023-03-17T16:35:50.165Z,16.95
2023-03-17T16:38:18.485Z,19.58
2023-03-17T16:40:47.247Z,28.60
2023-03-17T16:43:36.418Z,29.83
2023-03-17T16:46:03.875Z,37.17
2023-03-17T16:48:31.872Z,28.55
2023-03-17T16:51:00.181Z,42.40
2023-03-17T16:53:26.721Z,38.47
2023-03-17T16:55:54.704Z,29.98
2023-03-17T16:58:23.166Z,36.00
2023-03-17T17:00:50.602Z,32.95
2023-03-17T17:03:18.579Z,36.03
2023-03-17T17:05:46.278Z,38.10
2023-03-17T17:08:12.765Z,43.40
2023-03-17T17:10:40.710Z,38.50
2023-03-17T17:13:08.056Z,36.30
2023-03-17T17:15:36.370Z,28.75
2023-03-17T17:18:04.508Z,33.47
2023-03-17T17:20:32.860Z,31.45
2023-03-17T17:23:02.154Z,24.92
2023-03-17T17:25:30.464Z,29.67
2023-03-17T17:27:58.326Z,27.98
2023-03-17T17:30:28.494Z,23.38
2023-03-17T17:32:57.208Z,26.80
2023-03-17T17:35:25.062Z,23.15
2023-03-17T17:37:51.804Z,26.35
2023-03-17T17:40:20.237Z,16.52
2023-03-17T17:42:48.227Z,15.75
2023-03-17T17:45:17.075Z,21.35
2023-03-17T17:47:44.594Z,16.42
2023-03-17T17:50:16.680Z,10.27
2023-03-17T17:52:44.704Z,15.93
2023-03-17T17:55:13.030Z,11.32
2023-03-17T17:57:39.952Z,12.43
2023-03-17T18:00:07.962Z,15.95
2023-03-17T18:02:35.379Z,13.45
2023-03-17T18:05:02.298Z,17.55
2023-03-17T18:07:29.527Z,13.02
2023-03-17T18:09:56.076Z,13.38
2023-03-17T18:12:23.562Z,14.98
2023-03-17T18:14:49.999Z,16.00
2023-03-17T18:17:21.733Z,21.13
2023-03-17T18:19:54.768Z,19.08
2023-03-17T18:22:21.689Z,26.08
2023-03-17T18:24:52.221Z,19.70
2023-03-17T18:27:18.654Z,19.02
2023-03-17T18:29:47.741Z,18.63
2023-03-17T18:32:15.174Z,14.10
2023-03-17T18:34:44.790Z,21.77
2023-03-17T18:37:14.211Z,21.80
2023-03-17T18:39:41.830Z,23.50
2023-03-17T18:42:09.338Z,26.35
2023-03-17T18:44:36.132Z,25.58
2023-03-17T18:47:03.292Z,32.22
2023-03-17T18:49:30.748Z,32.20
2023-03-17T18:51:59.738Z,30.13
2023-03-17T18:54:28.313Z,34.47
2023-03-17T18:56:55.837Z,24.17
2023-03-17T18:59:23.009Z,32.40
2023-03-17T19:01:50.292Z,32.25
2023-03-17T19:04:17.482Z,25.48
2023-03-17T19:06:45.272Z,25.13
2023-03-17T19:09:11.805Z,28.38
2023-03-17T19:11:42.430Z,31.25
2023-03-17T19:14:09.896Z,27.40
2023-03-17T19:16:36.439Z,34.60
2023-03-17T19:19:03.828Z,39.53
2023-03-17T19:21:31.120Z,26.30
2023-03-17T19:23:59.526Z,27.95
2023-03-17T19:26:26.092Z,25.08
2023-03-17T19:28:56.966Z,20.33
2023-03-17T19:31:25.346Z,19.98
2023-03-17T19:33:52.675Z,23.77
2023-03-17T19:36:20.715Z,20.30
2023-03-17T19:38:47.224Z,15.95
2023-03-17T19:41:15.614Z,16.63
2023-03-17T19:43:42.971Z,23.85
2023-03-17T19:46:11.938Z,18.15
2023-03-17T19:48:39.115Z,17.33
2023-03-17T19:51:06.953Z,16.73
2023-03-17T19:53:34.442Z,20.88
2023-03-17T19:56:01.605Z,17.73
2023-03-17T19:58:28.122Z,13.00
2023-03-17T20:00:54.580Z,16.35
2023-03-17T20:03:22.690Z,17.23
2023-03-17T20:05:54.595Z,22.55
2023-03-17T20:08:22.661Z,14.88
2023-03-17T20:10:52.886Z,19.25
2023-03-17T20:13:19.937Z,16.95
2023-03-17T20:15:46.981Z,17.35
2023-03-17T20:18:13.554Z,20.23
2023-03-17T20:20:43.283Z,17.55
2023-03-17T20:23:09.704Z,21.30
2023-03-17T20:25:36.672Z,16.65
2023-03-17T20:28:04.342Z,13.13
2023-03-17T20:30:32.539Z,21.63
2023-03-17T20:33:00.040Z,25.05
2023-03-17T20:35:28.231Z,16.67
2023-03-17T20:37:57.185Z,16.08
2023-03-17T20:40:24.417Z,15.05
2023-03-17T20:42:52.093Z,14.80
2023-03-17T20:45:20.249Z,16.67
2023-03-17T20:47:47.816Z,16.25
2023-03-17T20:50:15.758Z,13.57
2023-03-17T20:52:43.496Z,12.40
2023-03-17T20:55:14.549Z,13.57
2023-03-17T20:57:42.705Z,14.10
2023-03-17T21:00:16.961Z,14.95
2023-03-17T21:02:50.934Z,17.77
2023-03-17T21:05:19.986Z,14.02
2023-03-17T21:07:48.024Z,11.13
2023-03-17T21:10:15.492Z,10.88
2023-03-17T21:12:42.135Z,14.50
2023-03-17T21:15:10.085Z,14.45
2023-03-17T21:17:38.884Z,12.45
2023-03-17T21:20:10.137Z,19.38
2023-03-17T21:22:38.343Z,12.98
2023-03-17T21:25:05.355Z,14.32
2023-03-17T21:27:31.804Z,13.85
2023-03-17T21:29:59.355Z,15.90
2023-03-17T21:32:27.098Z,17.10
2023-03-17T21:34:55.003Z,12.00
2023-03-17T21:37:21.586Z,13.63
2023-03-17T21:39:49.336Z,13.05
2023-03-17T21:42:16.045Z,16.38
2023-03-17T21:44:43.386Z,14.32
2023-03-17T21:47:10.584Z,10.20
2023-03-17T21:49:37.726Z,10.57
2023-03-17T21:52:05.019Z,19.58
2023-03-17T21:54:32.224Z,12.68
2023-03-17T21:56:59.193Z,13.90
2023-03-17T21:59:26.473Z,7.47
2023-03-17T22:01:54.012Z,9.43
2023-03-17T22:04:20.952Z,10.25
2023-03-17T22:06:48.177Z,13.88
2023-03-17T22:09:16.512Z,10.45
2023-03-17T22:11:44.820Z,10.90
2023-03-17T22:14:11.925Z,13.90
2023-03-17T22:16:39.416Z,12.68
2023-03-17T22:19:07.193Z,12.18
2023-03-17T22:21:34.008Z,9.20
2023-03-17T22:24:01.323Z,8.80
2023-03-17T22:26:29.586Z,9.00
2023-03-17T22:28:57.065Z,14.17
2023-03-17T22:31:25.214Z,8.63
2023-03-17T22:33:54.935Z,11.13
2023-03-17T22:36:22.860Z,8.73
2023-03-17T22:38:50.820Z,11.00
2023-03-17T22:41:22.814Z,12.10
2023-03-17T22:43:50.662Z,11.52
2023-03-17T22:46:18.777Z,10.43
2023-03-17T22:48:47.067Z,11.65
2023-03-17T22:51:15.169Z,7.68
2023-03-17T22:53:42.110Z,10.25
2023-03-17T22:56:09.921Z,9.10
2023-03-17T22:58:36.910Z,8.87
2023-03-17T23:01:06.257Z,9.90
2023-03-17T23:03:34.564Z,11.88
2023-03-17T23:06:02.827Z,9.63
2023-03-17T23:08:32.118Z,10.77
2023-03-17T23:11:01.425Z,11.60
2023-03-17T23:13:28.711Z,9.50
2023-03-17T23:15:56.744Z,10.20
2023-03-17T23:18:24.495Z,10.88
2023-03-17T23:20:52.657Z,10.23
2023-03-17T23:23:20.610Z,8.95
2023-03-17T23:25:47.838Z,13.48
2023-03-17T23:28:16.218Z,12.27
2023-03-17T23:30:44.255Z,10.60
2023-03-17T23:33:11.826Z,9.38
2023-03-17T23:35:38.881Z,10.50
2023-03-17T23:38:06.216Z,10.25
2023-03-17T23:40:33.261Z,9.07
2023-03-17T23:43:00.865Z,11.27
2023-03-17T23:45:28.810Z,8.20
2023-03-17T23:47:57.623Z,8.57
2023-03-17T23:50:24.319Z,10.88
2023-03-17T23:52:50.957Z,10.77
2023-03-17T23:55:18.786Z,9.13
2023-03-17T23:57:47.379Z,12.23
